createdAt,value
2023-02-19T00:02:09.802Z,100480.75
2023-02-19T00:05:12.759Z,100491.56
2023-02-19T00:08:15.477Z,100492.53
2023-02-19T00:11:21.014Z,100495.25
2023-02-19T00:14:23.685Z,100497.06
2023-02-19T00:17:26.515Z,100499.91
2023-02-19T00:20:30.449Z,100501.78
2023-02-19T00:23:33.764Z,100496.53
2023-02-19T00:26:38.718Z,100499.31
2023-02-19T00:29:41.618Z,100500.34
2023-02-19T00:32:44.201Z,100506.72
2023-02-19T00:35:47.040Z,100507.72
2023-02-19T00:38:50.053Z,100516.75
2023-02-19T00:41:52.911Z,100513.25
2023-02-19T00:44:55.455Z,100523.16
2023-02-19T00:47:58.228Z,100518.75
2023-02-19T00:51:00.951Z,100509.81
2023-02-19T00:54:04.775Z,100514.25
2023-02-19T00:57:07.441Z,100510.59
2023-02-19T01:00:11.104Z,100517.75
2023-02-19T01:03:14.179Z,100514.16
2023-02-19T01:06:19.635Z,100520.50
2023-02-19T01:09:22.503Z,100498.03
2023-02-19T01:12:25.887Z,100491.75
2023-02-19T01:15:28.530Z,100491.63
2023-02-19T01:18:31.937Z,100487.09
2023-02-19T01:21:34.558Z,100490.59
2023-02-19T01:24:39.105Z,100488.84
2023-02-19T01:27:41.724Z,100478.97
2023-02-19T01:30:44.629Z,100479.81
2023-02-19T01:33:52.306Z,100471.81
2023-02-19T01:36:55.235Z,100464.66
2023-02-19T01:39:58.350Z,100469.25
2023-02-19T01:43:01.155Z,100466.63
2023-02-19T01:46:03.770Z,100472.13
2023-02-19T01:49:13.185Z,100465.84
2023-02-19T01:52:36.144Z,100459.66
2023-02-19T01:55:39.555Z,100454.37
2023-02-19T01:58:42.283Z,100453.59
2023-02-19T02:01:45.280Z,100453.59
2023-02-19T02:04:48.526Z,100450.09
2023-02-19T02:08:10.264Z,100450.13
2023-02-19T02:11:13.532Z,100451.91
2023-02-19T02:14:18.325Z,100448.31
2023-02-19T02:17:25.151Z,100445.62
2023-02-19T02:20:33.493Z,100441.19
2023-02-19T02:24:03.265Z,100437.75
2023-02-19T02:27:10.667Z,100428.81
2023-02-19T02:30:22.591Z,100417.97
2023-02-19T02:33:29.864Z,100408.94
2023-02-19T02:36:36.396Z,100408.12
2023-02-19T02:39:41.349Z,100397.13
2023-02-19T02:42:44.446Z,100397.16
2023-02-19T02:45:47.708Z,100392.81
2023-02-19T02:48:57.143Z,100384.00
2023-02-19T02:52:21.123Z,100382.25
2023-02-19T02:55:25.319Z,100377.84
2023-02-19T02:58:30.279Z,100386.03
2023-02-19T03:01:57.540Z,100378.00
2023-02-19T03:05:28.943Z,100383.31
2023-02-19T03:08:37.339Z,100390.47
2023-02-19T03:12:00.758Z,100390.56
2023-02-19T03:15:26.744Z,100383.37
2023-02-19T03:18:49.233Z,100388.72
2023-02-19T03:21:59.967Z,100366.28
2023-02-19T03:25:29.355Z,100376.34
2023-02-19T03:28:53.306Z,100379.06
2023-02-19T03:31:58.993Z,100376.25
2023-02-19T03:35:10.938Z,100369.94
2023-02-19T03:38:18.851Z,100377.16
2023-02-19T03:41:23.714Z,100378.78
2023-02-19T03:44:48.100Z,100377.84
2023-02-19T03:48:05.858Z,100375.03
2023-02-19T03:51:21.023Z,100373.28
2023-02-19T03:54:42.255Z,100386.69
2023-02-19T03:57:58.395Z,100385.63
2023-02-19T04:01:07.521Z,100382.84
2023-02-19T04:04:24.688Z,100391.03
2023-02-19T04:07:28.449Z,100392.91
2023-02-19T04:10:32.154Z,100363.22
2023-02-19T04:13:53.441Z,100382.06
2023-02-19T04:17:24.564Z,100374.03
2023-02-19T04:20:30.547Z,100374.03
2023-02-19T04:23:36.991Z,100368.78
2023-02-19T04:26:39.872Z,100368.03
2023-02-19T04:29:42.961Z,100364.41
2023-02-19T04:32:45.546Z,100373.41
2023-02-19T04:35:48.388Z,100368.94
2023-02-19T04:38:51.130Z,100374.12
2023-02-19T04:41:54.034Z,100383.22
2023-02-19T04:44:56.574Z,100370.59
2023-02-19T04:47:59.554Z,100375.00
2023-02-19T04:51:07.560Z,100384.00
2023-02-19T04:54:10.351Z,100375.87
2023-02-19T04:57:12.818Z,100375.06
2023-02-19T05:00:16.723Z,100372.37
2023-02-19T05:03:19.485Z,100381.31
2023-02-19T05:06:22.330Z,100384.00
2023-02-19T05:09:25.793Z,100381.28
2023-02-19T05:12:31.169Z,100384.00
2023-02-19T05:15:33.733Z,100374.19
2023-02-19T05:18:36.539Z,100381.28
2023-02-19T05:21:42.147Z,100377.62
2023-02-19T05:24:44.947Z,100367.78
2023-02-19T05:27:47.539Z,100364.16
2023-02-19T05:30:52.578Z,100361.34
2023-02-19T05:33:56.207Z,100364.12
2023-02-19T05:36:59.129Z,100358.03
2023-02-19T05:40:01.746Z,100361.75
2023-02-19T05:43:05.205Z,100357.16
2023-02-19T05:46:08.678Z,100352.84
2023-02-19T05:49:11.710Z,100362.72
2023-02-19T05:52:14.753Z,100357.31
2023-02-19T05:55:17.702Z,100355.50
2023-02-19T05:58:20.231Z,100349.31
2023-02-19T06:01:25.924Z,100348.31
2023-02-19T06:04:28.946Z,100339.38
2023-02-19T06:07:32.308Z,100347.53
2023-02-19T06:10:37.939Z,100343.94
2023-02-19T06:13:40.463Z,100341.31
2023-02-19T06:16:43.359Z,100361.94
2023-02-19T06:19:45.866Z,100351.22
2023-02-19T06:22:50.435Z,100357.50
2023-02-19T06:25:54.613Z,100356.63
2023-02-19T06:28:57.544Z,100354.88
2023-02-19T06:32:01.056Z,100347.72
2023-02-19T06:35:04.676Z,100353.16
2023-02-19T06:38:07.223Z,100359.44
2023-02-19T06:41:11.099Z,100362.13
2023-02-19T06:44:13.713Z,100361.25
2023-02-19T06:47:16.630Z,100356.78
2023-02-19T06:50:19.298Z,100354.09
2023-02-19T06:53:22.858Z,100354.12
2023-02-19T06:56:34.121Z,100348.78
2023-02-19T06:59:36.904Z,100339.84
2023-02-19T07:02:39.605Z,100347.03
2023-02-19T07:05:43.911Z,100346.13
2023-02-19T07:08:46.796Z,100354.16
2023-02-19T07:11:49.675Z,100355.94
2023-02-19T07:14:52.259Z,100350.59
2023-02-19T07:17:55.090Z,100352.37
2023-02-19T07:21:11.743Z,100351.47
2023-02-19T07:24:14.651Z,100347.00
2023-02-19T07:27:17.225Z,100350.56
2023-02-19T07:30:21.353Z,100350.56
2023-02-19T07:33:23.972Z,100354.12
2023-02-19T07:36:26.879Z,100346.03
2023-02-19T07:39:29.399Z,100362.13
2023-02-19T07:42:32.370Z,100350.47
2023-02-19T07:45:35.912Z,100349.53
2023-02-19T07:48:39.542Z,100348.59
2023-02-19T07:51:43.858Z,100353.03
2023-02-19T07:54:46.990Z,100349.41
2023-02-19T07:57:49.462Z,100365.34
2023-02-19T08:00:52.318Z,100357.03
2023-02-19T08:03:55.138Z,100356.78
2023-02-19T08:06:57.693Z,100351.28
2023-02-19T08:10:19.121Z,100347.53
2023-02-19T08:13:28.114Z,100351.75
2023-02-19T08:16:42.619Z,100340.56
2023-02-19T08:19:45.685Z,100334.94
2023-02-19T08:22:48.790Z,100338.50
2023-02-19T08:25:52.500Z,100325.00
2023-02-19T08:28:55.312Z,100350.75
2023-02-19T08:31:57.926Z,100355.22
2023-02-19T08:35:00.718Z,100357.72
2023-02-19T08:38:04.426Z,100365.97
2023-02-19T08:41:10.072Z,100367.78
2023-02-19T08:44:12.819Z,100370.47
2023-02-19T08:47:15.613Z,100379.25
2023-02-19T08:50:18.421Z,100372.78
2023-02-19T08:53:21.276Z,100373.56
2023-02-19T08:56:23.856Z,100363.63
2023-02-19T08:59:29.050Z,100358.09
2023-02-19T09:02:31.622Z,100362.91
2023-02-19T09:05:34.548Z,100366.53
2023-02-19T09:08:37.189Z,100368.53
2023-02-19T09:11:40.158Z,100362.25
2023-02-19T09:14:42.998Z,100354.25
2023-02-19T09:17:45.752Z,100355.09
2023-02-19T09:20:48.336Z,100356.44
2023-02-19T09:23:51.195Z,100362.37
2023-02-19T09:26:54.611Z,100357.56
2023-02-19T09:29:57.682Z,100346.53
2023-02-19T09:33:00.207Z,100343.59
2023-02-19T09:36:04.080Z,100348.41
2023-02-19T09:39:08.305Z,100350.81
2023-02-19T09:42:23.367Z,100346.34
2023-02-19T09:45:26.450Z,100345.66
2023-02-19T09:48:29.495Z,100347.75
2023-02-19T09:51:35.046Z,100335.37
2023-02-19T09:54:39.246Z,100337.03
2023-02-19T09:57:42.831Z,100337.16
2023-02-19T10:00:48.265Z,100322.06
2023-02-19T10:03:51.167Z,100315.50
2023-02-19T10:06:59.022Z,100296.62
2023-02-19T10:10:20.789Z,100290.12
2023-02-19T10:13:29.480Z,100282.81
2023-02-19T10:16:32.445Z,100267.84
2023-02-19T10:19:36.311Z,100274.22
2023-02-19T10:22:39.166Z,100269.59
2023-02-19T10:25:46.912Z,100270.78
2023-02-19T10:28:49.917Z,100282.06
2023-02-19T10:32:21.664Z,100269.62
2023-02-19T10:35:24.583Z,100281.47
2023-02-19T10:38:47.572Z,100273.25
2023-02-19T10:41:51.818Z,100279.25
2023-02-19T10:44:58.684Z,100281.66
2023-02-19T10:48:01.634Z,100281.22
2023-02-19T10:51:11.437Z,100292.50
2023-02-19T10:54:35.498Z,100285.59
2023-02-19T10:57:38.147Z,100289.25
2023-02-19T11:00:41.212Z,100279.50
2023-02-19T11:03:44.108Z,100282.03
2023-02-19T11:06:47.577Z,100283.06
2023-02-19T11:09:53.711Z,100275.53
2023-02-19T11:13:02.590Z,100277.94
2023-02-19T11:16:05.358Z,100278.41
2023-02-19T11:19:21.957Z,100284.09
2023-02-19T11:22:33.360Z,100283.44
2023-02-19T11:25:36.292Z,100271.66
2023-02-19T11:28:40.371Z,100272.81
2023-02-19T11:31:43.283Z,100277.50
2023-02-19T11:34:46.926Z,100273.25
2023-02-19T11:37:58.988Z,100261.34
2023-02-19T11:41:27.394Z,100267.25
2023-02-19T11:45:07.931Z,100255.53
2023-02-19T11:48:22.839Z,100244.37
2023-02-19T11:51:32.985Z,100255.66
2023-02-19T11:54:44.931Z,100247.94
2023-02-19T11:57:57.549Z,100235.66
2023-02-19T12:01:29.603Z,100233.72
2023-02-19T12:04:37.483Z,100224.84
2023-02-19T12:08:03.961Z,100227.59
2023-02-19T12:11:38.947Z,100241.31
2023-02-19T12:15:11.099Z,100226.38
2023-02-19T12:18:29.158Z,100226.91
2023-02-19T12:21:39.077Z,100234.94
2023-02-19T12:24:44.660Z,100224.19
2023-02-19T12:27:49.655Z,100230.91
2023-02-19T12:31:06.401Z,100233.44
2023-02-19T12:34:25.902Z,100230.28
2023-02-19T12:37:37.682Z,100247.88
2023-02-19T12:40:49.356Z,100246.91
2023-02-19T12:43:58.176Z,100276.56
2023-02-19T12:47:01.823Z,100265.94
2023-02-19T12:50:19.725Z,100288.19
2023-02-19T12:53:44.363Z,100286.97
2023-02-19T12:56:48.894Z,100295.03
2023-02-19T13:00:10.696Z,100316.34
2023-02-19T13:03:13.748Z,100302.66
2023-02-19T13:06:38.233Z,100312.47
2023-02-19T13:09:48.688Z,100309.59
2023-02-19T13:12:53.499Z,100311.13
2023-02-19T13:16:03.847Z,100291.91
2023-02-19T13:19:06.536Z,100285.16
2023-02-19T13:22:58.431Z,100299.25
2023-02-19T13:26:22.320Z,100290.03
2023-02-19T13:29:43.107Z,100288.22
2023-02-19T13:32:53.939Z,100286.88
2023-02-19T13:36:09.395Z,100278.81
2023-02-19T13:42:34.170Z,100289.91
2023-02-19T13:45:43.797Z,100298.37
2023-02-19T13:48:46.883Z,100305.56
2023-02-19T13:52:00.347Z,100317.63
2023-02-19T13:55:42.508Z,100324.09
2023-02-19T13:58:57.580Z,100322.37
2023-02-19T14:02:03.623Z,100331.34
2023-02-19T14:05:10.032Z,100338.09
2023-02-19T14:08:12.723Z,100336.31
2023-02-19T14:11:16.280Z,100334.91
2023-02-19T14:14:35.685Z,100339.84
2023-02-19T14:17:42.343Z,100348.75
2023-02-19T14:20:45.967Z,100333.38
2023-02-19T14:23:58.526Z,100353.38
2023-02-19T14:27:01.307Z,100332.28
2023-02-19T14:30:05.185Z,100350.31
2023-02-19T14:33:11.365Z,100353.16
2023-02-19T14:36:20.452Z,100347.53
2023-02-19T14:39:35.201Z,100364.38
2023-02-19T14:42:38.605Z,100361.94
2023-02-19T14:45:46.256Z,100388.47
2023-02-19T14:48:50.055Z,100413.81
2023-02-19T14:51:57.549Z,100420.16
2023-02-19T14:55:06.995Z,100421.97
2023-02-19T14:58:18.823Z,100413.94
2023-02-19T15:01:28.571Z,100419.34
2023-02-19T15:04:37.522Z,100395.31
2023-02-19T15:07:41.908Z,100410.50
2023-02-19T15:10:44.963Z,100412.25
2023-02-19T15:13:51.205Z,100404.19
2023-02-19T15:16:58.600Z,100417.63
2023-02-19T15:20:06.042Z,100427.41
2023-02-19T15:23:08.712Z,100410.34
2023-02-19T15:26:21.615Z,100430.03
2023-02-19T15:29:26.857Z,100430.03
2023-02-19T15:32:33.118Z,100424.66
2023-02-19T15:35:36.599Z,100426.44
2023-02-19T15:38:39.868Z,100435.38
2023-02-19T15:41:44.717Z,100434.47
2023-02-19T15:44:51.310Z,100442.56
2023-02-19T15:47:56.679Z,100447.13
2023-02-19T15:51:04.468Z,100459.69
2023-02-19T15:54:31.729Z,100465.03
2023-02-19T15:57:44.301Z,100464.09
2023-02-19T16:00:50.757Z,100480.13
2023-02-19T16:03:54.378Z,100495.31
2023-02-19T16:07:02.692Z,100497.13
2023-02-19T16:10:19.943Z,100524.91
2023-02-19T16:13:25.239Z,100540.19
2023-02-19T16:16:36.394Z,100596.72
2023-02-19T16:20:00.019Z,100612.81
2023-02-19T16:23:06.007Z,100624.41
2023-02-19T16:26:08.667Z,100615.38
2023-02-19T16:29:19.172Z,100624.28
2023-02-19T16:32:22.135Z,100615.31
2023-02-19T16:35:39.949Z,100623.31
2023-02-19T16:39:07.920Z,100634.88
2023-02-19T16:42:13.660Z,100628.59
2023-02-19T16:45:17.555Z,100632.12
2023-02-19T16:48:22.648Z,100633.00
2023-02-19T16:51:26.866Z,100629.44
2023-02-19T16:54:29.909Z,100624.09
2023-02-19T16:57:32.791Z,100612.47
2023-02-19T17:00:35.981Z,100614.25
2023-02-19T17:03:39.432Z,100631.16
2023-02-19T17:06:42.742Z,100637.41
2023-02-19T17:09:47.543Z,100646.31
2023-02-19T17:12:54.684Z,100655.22
2023-02-19T17:16:00.630Z,100657.09
2023-02-19T17:19:05.636Z,100649.09
2023-02-19T17:22:08.306Z,100627.59
2023-02-19T17:25:11.454Z,100665.03
2023-02-19T17:28:14.312Z,100670.31
2023-02-19T17:31:18.221Z,100672.03
2023-02-19T17:34:21.127Z,100664.06
2023-02-19T17:37:24.240Z,100676.47
2023-02-19T17:40:33.766Z,100691.69
2023-02-19T17:43:37.025Z,100700.56
2023-02-19T17:46:40.266Z,100709.50
2023-02-19T17:49:43.346Z,100723.75
2023-02-19T17:52:46.180Z,100734.44
2023-02-19T17:55:49.323Z,100745.09
2023-02-19T17:58:52.671Z,100763.63
2023-02-19T18:01:55.918Z,100775.06
2023-02-19T18:04:59.093Z,100792.03
2023-02-19T18:08:02.029Z,100789.41
2023-02-19T18:11:07.414Z,100803.81
2023-02-19T18:14:09.927Z,100814.56
2023-02-19T18:17:13.046Z,100824.44
2023-02-19T18:20:17.890Z,100835.06
2023-02-19T18:23:21.183Z,100845.78
2023-02-19T18:26:24.768Z,100849.41
2023-02-19T18:29:30.148Z,100851.19
2023-02-19T18:32:33.169Z,100864.56
2023-02-19T18:35:38.010Z,100881.56
2023-02-19T18:38:42.168Z,100877.97
2023-02-19T18:41:49.587Z,100860.09
2023-02-19T18:44:52.990Z,100889.75
2023-02-19T18:47:56.060Z,100899.59
2023-02-19T18:50:58.970Z,100893.34
2023-02-19T18:54:04.142Z,100908.56
2023-02-19T18:57:08.724Z,100912.13
2023-02-19T19:00:18.348Z,100915.78
2023-02-19T19:03:21.329Z,100911.22
2023-02-19T19:06:24.548Z,100919.31
2023-02-19T19:09:27.575Z,100919.38
2023-02-19T19:12:30.875Z,100907.91
2023-02-19T19:15:34.430Z,100921.31
2023-02-19T19:18:38.370Z,100940.03
2023-02-19T19:21:41.106Z,100949.75
2023-02-19T19:24:44.349Z,100947.88
2023-02-19T19:27:47.368Z,100950.56
2023-02-19T19:30:50.785Z,100958.66
2023-02-19T19:33:54.083Z,100971.84
2023-02-19T19:36:57.167Z,100987.78
2023-02-19T19:40:00.014Z,100986.94
2023-02-19T19:43:02.838Z,100984.91
2023-02-19T19:46:05.669Z,101002.06
2023-02-19T19:49:08.745Z,101002.78
2023-02-19T19:52:11.621Z,100997.56
2023-02-19T19:55:14.710Z,100992.16
2023-02-19T19:58:20.990Z,100988.44
2023-02-19T20:01:24.391Z,100992.84
2023-02-19T20:04:27.785Z,100979.31
2023-02-19T20:07:31.056Z,100987.97
2023-02-19T20:10:34.098Z,100983.47
2023-02-19T20:13:36.932Z,100994.06
2023-02-19T20:16:40.126Z,100979.06
2023-02-19T20:19:42.973Z,100991.25
2023-02-19T20:22:46.402Z,100992.03
2023-02-19T20:25:49.216Z,100996.53
2023-02-19T20:28:53.562Z,100993.88
2023-02-19T20:32:00.048Z,100988.53
2023-02-19T20:35:04.585Z,100991.91
2023-02-19T20:38:07.511Z,100987.41
2023-02-19T20:41:11.520Z,100995.16
2023-02-19T20:44:15.430Z,100990.78
2023-02-19T20:47:18.582Z,100997.03
2023-02-19T20:50:23.375Z,100991.69
2023-02-19T20:53:27.636Z,100993.28
2023-02-19T20:56:30.503Z,100999.63
2023-02-19T20:59:38.767Z,100995.78
2023-02-19T21:02:42.597Z,101020.50
2023-02-19T21:05:45.837Z,101012.50
2023-02-19T21:08:48.449Z,101025.75
2023-02-19T21:11:53.402Z,101017.13
2023-02-19T21:14:56.120Z,101023.19
2023-02-19T21:17:59.400Z,101012.25
2023-02-19T21:21:01.989Z,101016.66
2023-02-19T21:24:06.095Z,101022.69
2023-02-19T21:27:09.684Z,101019.84
2023-02-19T21:30:12.748Z,101041.28
2023-02-19T21:33:16.684Z,101050.19
2023-02-19T21:36:19.868Z,101059.81
2023-02-19T21:39:24.869Z,101055.94
2023-02-19T21:42:27.758Z,101064.81
2023-02-19T21:45:30.363Z,101067.59
2023-02-19T21:48:33.169Z,101065.66
2023-02-19T21:51:38.085Z,101067.22
2023-02-19T21:54:40.850Z,101059.94
2023-02-19T21:57:43.406Z,101050.75
2023-02-19T22:00:46.302Z,101064.06
2023-02-19T22:03:49.256Z,101075.84
2023-02-19T22:06:54.989Z,101079.12
2023-02-19T22:09:57.943Z,101081.97
2023-02-19T22:13:00.973Z,101078.28
2023-02-19T22:16:03.955Z,101081.88
2023-02-19T22:19:06.626Z,101096.44
2023-02-19T22:22:09.559Z,101093.38
2023-02-19T22:25:12.139Z,101082.59
2023-02-19T22:28:15.181Z,101087.03
2023-02-19T22:31:19.923Z,101088.28
2023-02-19T22:34:22.936Z,101108.56
2023-02-19T22:37:25.521Z,101120.22
2023-02-19T22:40:28.673Z,101120.97
2023-02-19T22:43:31.244Z,101116.69
2023-02-19T22:46:34.162Z,101118.06
2023-02-19T22:49:39.803Z,101133.97
2023-02-19T22:52:42.922Z,101142.22
2023-02-19T22:55:45.589Z,101137.66
2023-02-19T22:58:48.508Z,101154.41
2023-02-19T23:01:51.345Z,101156.28
2023-02-19T23:04:54.218Z,101147.25
2023-02-19T23:07:56.856Z,101143.72
2023-02-19T23:10:59.707Z,101143.75
2023-02-19T23:14:02.604Z,101146.28
2023-02-19T23:17:05.528Z,101156.91
2023-02-19T23:20:08.550Z,101151.56
2023-02-19T23:23:11.443Z,101150.66
2023-02-19T23:26:15.000Z,101153.00
2023-02-19T23:29:20.964Z,101164.50
2023-02-19T23:32:23.871Z,101162.56
2023-02-19T23:35:26.811Z,101165.87
2023-02-19T23:38:29.675Z,101166.91
2023-02-19T23:41:32.528Z,101175.09
2023-02-19T23:44:35.164Z,101172.47
2023-02-19T23:47:37.947Z,101166.38
2023-02-19T23:50:42.806Z,101169.13
2023-02-19T23:53:45.805Z,101173.75
2023-02-19T23:56:48.385Z,101176.31
2023-02-19T23:59:51.253Z,101184.34
